createdAt,value
2022-10-12T00:00:43.642Z,9.60
2022-10-12T00:03:13.239Z,9.85
2022-10-12T00:05:41.524Z,10.27
2022-10-12T00:08:09.710Z,9.93
2022-10-12T00:10:42.870Z,9.90
2022-10-12T00:13:11.521Z,8.88
2022-10-12T00:15:40.334Z,8.40
2022-10-12T00:18:08.945Z,8.95
2022-10-12T00:20:37.039Z,8.88
2022-10-12T00:23:05.180Z,8.35
2022-10-12T00:25:33.179Z,8.35
2022-10-12T00:28:02.630Z,8.10
2022-10-12T00:30:30.789Z,8.50
2022-10-12T00:32:58.819Z,8.38
2022-10-12T00:35:29.083Z,7.85
2022-10-12T00:37:57.582Z,7.95
2022-10-12T00:40:25.546Z,7.78
2022-10-12T00:42:53.568Z,7.65
2022-10-12T00:45:25.071Z,8.18
2022-10-12T00:47:56.978Z,7.63
2022-10-12T00:50:28.237Z,8.02
2022-10-12T00:53:01.371Z,7.60
2022-10-12T00:55:32.781Z,7.10
2022-10-12T00:58:02.276Z,7.18
2022-10-12T01:00:32.026Z,7.35
2022-10-12T01:03:00.543Z,7.93
2022-10-12T01:05:29.465Z,7.35
2022-10-12T01:07:59.737Z,7.28
2022-10-12T01:10:27.803Z,6.93
2022-10-12T01:12:56.041Z,7.65
2022-10-12T01:15:30.305Z,7.88
2022-10-12T01:18:06.898Z,6.85
2022-10-12T01:20:52.502Z,7.28
2022-10-12T01:23:44.107Z,7.05
2022-10-12T01:26:40.057Z,7.63
2022-10-12T01:29:22.026Z,6.72
2022-10-12T01:31:56.362Z,7.35
2022-10-12T01:34:32.037Z,7.07
2022-10-12T01:37:09.222Z,7.07
2022-10-12T01:39:44.836Z,6.88
2022-10-12T01:42:19.972Z,6.40
2022-10-12T01:44:48.018Z,6.65
2022-10-12T01:47:17.399Z,6.63
2022-10-12T01:49:45.421Z,6.40
2022-10-12T01:52:24.379Z,6.38
2022-10-12T01:55:11.707Z,6.30
2022-10-12T01:57:51.839Z,5.80
2022-10-12T02:00:20.608Z,6.38
2022-10-12T02:02:59.258Z,6.38
2022-10-12T02:05:36.183Z,6.43
2022-10-12T02:08:10.602Z,6.50
2022-10-12T02:10:42.335Z,6.53
2022-10-12T02:13:15.134Z,7.15
2022-10-12T02:15:44.865Z,5.97
2022-10-12T02:18:18.707Z,6.50
2022-10-12T02:20:48.521Z,6.65
2022-10-12T02:23:17.521Z,6.20
2022-10-12T02:25:47.345Z,5.78
2022-10-12T02:28:19.651Z,6.50
2022-10-12T02:30:53.873Z,6.35
2022-10-12T02:33:28.413Z,6.80
2022-10-12T02:36:01.861Z,6.90
2022-10-12T02:38:35.246Z,7.32
2022-10-12T02:41:06.845Z,7.90
2022-10-12T02:43:39.824Z,12.02
2022-10-12T02:46:10.521Z,10.25
2022-10-12T02:48:41.515Z,10.13
2022-10-12T02:51:12.152Z,9.77
2022-10-12T02:53:40.635Z,9.32
2022-10-12T02:56:13.165Z,8.60
2022-10-12T02:58:43.814Z,9.23
2022-10-12T03:01:12.252Z,7.40
2022-10-12T03:03:41.761Z,7.22
2022-10-12T03:06:10.101Z,7.18
2022-10-12T03:08:38.182Z,6.80
2022-10-12T03:11:08.656Z,6.93
2022-10-12T03:13:36.804Z,6.68
2022-10-12T03:16:05.545Z,6.63
2022-10-12T03:18:34.516Z,6.72
2022-10-12T03:21:04.219Z,6.72
2022-10-12T03:23:32.605Z,6.22
2022-10-12T03:26:00.646Z,6.45
2022-10-12T03:28:28.854Z,5.85
2022-10-12T03:30:57.267Z,6.43
2022-10-12T03:33:25.393Z,6.07
2022-10-12T03:35:53.479Z,5.82
2022-10-12T03:38:22.858Z,6.55
2022-10-12T03:40:50.879Z,6.18
2022-10-12T03:43:18.913Z,6.10
2022-10-12T03:45:47.331Z,6.32
2022-10-12T03:48:15.397Z,6.72
2022-10-12T03:50:43.428Z,6.97
2022-10-12T03:53:11.447Z,6.97
2022-10-12T03:55:40.827Z,5.95
2022-10-12T03:58:08.869Z,6.30
2022-10-12T04:00:37.225Z,6.10
2022-10-12T04:03:05.522Z,5.80
2022-10-12T04:05:33.943Z,6.25
2022-10-12T04:08:02.122Z,5.82
2022-10-12T04:10:30.139Z,5.50
2022-10-12T04:12:59.623Z,5.23
2022-10-12T04:15:27.606Z,5.77
2022-10-12T04:17:55.621Z,5.50
2022-10-12T04:20:23.668Z,5.70
2022-10-12T04:22:51.668Z,5.97
2022-10-12T04:25:19.727Z,5.40
2022-10-12T04:27:47.745Z,5.90
2022-10-12T04:30:17.238Z,5.97
2022-10-12T04:32:45.230Z,6.65
2022-10-12T04:35:13.258Z,5.75
2022-10-12T04:37:41.563Z,6.20
2022-10-12T04:40:10.568Z,6.00
2022-10-12T04:42:38.605Z,6.70
2022-10-12T04:45:07.566Z,6.67
2022-10-12T04:47:37.293Z,6.20
2022-10-12T04:50:06.301Z,6.32
2022-10-12T04:52:34.323Z,5.85
2022-10-12T04:55:02.367Z,6.80
2022-10-12T04:57:30.594Z,6.78
2022-10-12T04:59:58.658Z,6.30
2022-10-12T05:02:26.714Z,6.20
2022-10-12T05:04:56.170Z,5.93
2022-10-12T05:07:24.164Z,6.15
2022-10-12T05:09:52.309Z,6.15
2022-10-12T05:12:20.330Z,6.25
2022-10-12T05:14:48.321Z,6.57
2022-10-12T05:17:16.351Z,5.90
2022-10-12T05:19:44.400Z,5.73
2022-10-12T05:22:13.825Z,5.70
2022-10-12T05:24:41.823Z,6.40
2022-10-12T05:27:10.058Z,5.90
2022-10-12T05:29:38.047Z,6.13
2022-10-12T05:32:06.322Z,6.33
2022-10-12T05:34:34.354Z,5.67
2022-10-12T05:37:02.711Z,5.90
2022-10-12T05:39:32.144Z,6.82
2022-10-12T05:42:00.209Z,6.90
2022-10-12T05:44:28.245Z,7.30
2022-10-12T05:46:56.318Z,7.38
2022-10-12T05:49:24.346Z,6.63
2022-10-12T05:51:52.433Z,7.40
2022-10-12T05:54:20.549Z,7.28
2022-10-12T05:56:49.936Z,6.75
2022-10-12T05:59:18.005Z,7.15
2022-10-12T06:01:46.094Z,7.50
2022-10-12T06:04:14.122Z,7.37
2022-10-12T06:06:42.186Z,7.40
2022-10-12T06:09:10.266Z,7.47
2022-10-12T06:11:38.336Z,7.07
2022-10-12T06:14:07.777Z,7.13
2022-10-12T06:16:35.782Z,6.93
2022-10-12T06:19:03.798Z,7.40
2022-10-12T06:21:34.289Z,7.03
2022-10-12T06:24:02.809Z,6.88
2022-10-12T06:26:31.091Z,7.75
2022-10-12T06:29:00.685Z,7.45
2022-10-12T06:31:30.601Z,6.95
2022-10-12T06:33:58.653Z,7.50
2022-10-12T06:36:26.841Z,8.05
2022-10-12T06:38:55.259Z,7.30
2022-10-12T06:41:23.473Z,7.78
2022-10-12T06:43:51.490Z,7.45
2022-10-12T06:46:19.541Z,7.53
2022-10-12T06:48:48.962Z,8.00
2022-10-12T06:51:16.978Z,8.10
2022-10-12T06:53:45.046Z,7.93
2022-10-12T06:56:13.754Z,8.05
2022-10-12T06:58:42.117Z,7.80
2022-10-12T07:01:11.123Z,7.30
2022-10-12T07:03:39.419Z,8.05
2022-10-12T07:06:11.449Z,7.22
2022-10-12T07:08:41.001Z,7.68
2022-10-12T07:11:10.724Z,7.88
2022-10-12T07:13:39.310Z,7.75
2022-10-12T07:16:07.823Z,8.38
2022-10-12T07:18:35.877Z,7.72
2022-10-12T07:21:04.286Z,7.40
2022-10-12T07:23:34.833Z,6.80
2022-10-12T07:26:03.070Z,6.53
2022-10-12T07:28:31.163Z,6.45
2022-10-12T07:31:03.158Z,6.40
2022-10-12T07:33:35.147Z,5.78
2022-10-12T07:36:14.020Z,5.97
2022-10-12T07:38:45.814Z,6.22
2022-10-12T07:41:15.259Z,5.40
2022-10-12T07:43:43.482Z,5.45
2022-10-12T07:46:12.093Z,4.95
2022-10-12T07:48:44.551Z,5.53
2022-10-12T07:51:17.168Z,5.38
2022-10-12T07:53:46.733Z,4.95
2022-10-12T07:56:18.336Z,5.32
2022-10-12T07:58:50.123Z,5.10
2022-10-12T08:01:19.747Z,5.07
2022-10-12T08:03:48.229Z,5.07
2022-10-12T08:06:17.859Z,5.60
2022-10-12T08:08:47.381Z,5.43
2022-10-12T08:11:16.120Z,5.32
2022-10-12T08:13:44.642Z,4.90
2022-10-12T08:16:14.954Z,5.22
2022-10-12T08:18:43.388Z,5.05
2022-10-12T08:21:14.120Z,4.80
2022-10-12T08:23:44.497Z,4.70
2022-10-12T08:26:14.910Z,4.53
2022-10-12T08:28:43.641Z,4.35
2022-10-12T08:31:14.218Z,5.20
2022-10-12T08:33:42.318Z,4.80
2022-10-12T08:36:11.966Z,5.30
2022-10-12T08:38:40.112Z,4.72
2022-10-12T08:41:27.562Z,5.22
2022-10-12T08:44:16.018Z,4.80
2022-10-12T08:46:44.054Z,4.82
2022-10-12T08:49:17.414Z,4.47
2022-10-12T08:51:50.203Z,4.63
2022-10-12T08:54:20.220Z,4.70
2022-10-12T08:56:49.920Z,4.68
2022-10-12T08:59:19.887Z,5.03
2022-10-12T09:02:00.374Z,4.80
2022-10-12T09:04:41.626Z,5.25
2022-10-12T09:07:14.095Z,5.18
2022-10-12T09:09:54.650Z,5.15
2022-10-12T09:12:36.571Z,4.70
2022-10-12T09:15:16.455Z,4.97
2022-10-12T09:17:48.757Z,5.28
2022-10-12T09:20:22.673Z,4.82
2022-10-12T09:22:52.775Z,5.03
2022-10-12T09:25:24.907Z,4.55
2022-10-12T09:27:55.301Z,4.45
2022-10-12T09:30:23.519Z,4.32
2022-10-12T09:33:10.322Z,4.60
2022-10-12T09:35:38.634Z,5.70
2022-10-12T09:38:07.818Z,4.20
2022-10-12T09:40:35.875Z,4.55
2022-10-12T09:43:05.407Z,5.10
2022-10-12T09:45:36.198Z,4.63
2022-10-12T09:48:15.922Z,4.32
2022-10-12T09:50:48.817Z,4.70
2022-10-12T09:53:32.890Z,4.35
2022-10-12T09:56:06.738Z,4.05
2022-10-12T09:58:42.907Z,3.90
2022-10-12T10:01:19.578Z,4.60
2022-10-12T10:03:49.907Z,3.63
2022-10-12T10:06:24.645Z,3.67
2022-10-12T10:08:52.786Z,4.10
2022-10-12T10:11:24.557Z,3.60
2022-10-12T10:13:55.934Z,3.63
2022-10-12T10:16:27.122Z,2.97
2022-10-12T10:19:00.478Z,3.42
2022-10-12T10:21:32.406Z,3.50
2022-10-12T10:24:02.469Z,3.10
2022-10-12T10:26:51.423Z,3.33
2022-10-12T10:29:32.101Z,3.33
2022-10-12T10:32:23.967Z,3.10
2022-10-12T10:35:02.984Z,3.60
2022-10-12T10:37:32.213Z,3.00
2022-10-12T10:40:00.902Z,3.00
2022-10-12T10:42:32.636Z,3.30
2022-10-12T10:45:07.067Z,3.20
2022-10-12T10:47:43.283Z,3.10
2022-10-12T10:50:25.759Z,3.00
2022-10-12T10:52:57.717Z,3.53
2022-10-12T10:55:36.389Z,3.40
2022-10-12T10:58:07.108Z,3.17
2022-10-12T11:00:44.062Z,3.50
2022-10-12T11:03:15.970Z,2.97
2022-10-12T11:05:47.789Z,2.75
2022-10-12T11:08:20.710Z,2.90
2022-10-12T11:10:54.517Z,2.47
2022-10-12T11:13:26.621Z,3.08
2022-10-12T11:15:59.437Z,3.20
2022-10-12T11:18:35.772Z,3.05
2022-10-12T11:21:08.442Z,2.92
2022-10-12T11:23:45.137Z,3.10
2022-10-12T11:26:21.683Z,3.33
2022-10-12T11:28:50.443Z,2.67
2022-10-12T11:31:26.675Z,2.75
2022-10-12T11:33:56.222Z,2.47
2022-10-12T11:36:27.439Z,2.75
2022-10-12T11:39:03.203Z,3.28
2022-10-12T11:42:03.067Z,3.05
2022-10-12T11:44:41.036Z,3.08
2022-10-12T11:47:17.267Z,2.65
2022-10-12T11:49:53.543Z,2.95
2022-10-12T11:52:27.763Z,2.50
2022-10-12T11:55:01.995Z,2.70
2022-10-12T11:57:35.054Z,2.60
2022-10-12T12:00:06.591Z,2.70
2022-10-12T12:02:44.126Z,2.78
2022-10-12T12:05:16.509Z,2.88
2022-10-12T12:07:50.254Z,2.17
2022-10-12T12:10:51.873Z,2.42
2022-10-12T12:13:23.787Z,2.78
2022-10-12T12:16:32.782Z,2.50
2022-10-12T12:19:39.297Z,2.40
2022-10-12T12:22:24.945Z,2.50
2022-10-12T12:25:05.986Z,2.45
2022-10-12T12:27:38.138Z,2.28
2022-10-12T12:30:24.878Z,2.50
2022-10-12T12:32:55.371Z,2.30
2022-10-12T12:35:28.844Z,2.22
2022-10-12T12:38:19.802Z,2.53
2022-10-12T12:41:06.507Z,2.42
2022-10-12T12:44:02.675Z,2.53
2022-10-12T12:47:32.514Z,1.88
2022-10-12T12:49:57.321Z,2.25
2022-10-12T12:52:29.810Z,2.50
2022-10-12T12:55:39.373Z,2.10
2022-10-12T12:58:44.603Z,2.58
2022-10-12T13:01:31.898Z,2.30
2022-10-12T13:04:24.145Z,2.33
2022-10-12T13:07:21.198Z,2.40
2022-10-12T13:10:12.877Z,2.42
2022-10-12T13:13:01.062Z,2.85
2022-10-12T13:15:45.891Z,2.22
2022-10-12T13:18:49.420Z,1.83
2022-10-12T13:21:21.362Z,2.17
2022-10-12T13:23:52.347Z,2.22
2022-10-12T13:26:26.327Z,2.40
2022-10-12T13:28:55.995Z,2.10
2022-10-12T13:31:28.999Z,2.33
2022-10-12T13:34:04.768Z,2.20
2022-10-12T13:36:36.222Z,2.28
2022-10-12T13:39:15.230Z,1.90
2022-10-12T13:41:46.002Z,2.50
2022-10-12T13:44:23.103Z,2.50
2022-10-12T13:46:54.927Z,1.88
2022-10-12T13:49:25.368Z,2.67
2022-10-12T13:51:55.058Z,2.10
2022-10-12T13:54:25.970Z,2.05
2022-10-12T13:56:58.632Z,2.40
2022-10-12T13:59:29.634Z,2.78
2022-10-12T14:02:00.886Z,1.95
2022-10-12T14:04:30.694Z,2.40
2022-10-12T14:07:02.683Z,2.17
2022-10-12T14:09:41.582Z,2.38
2022-10-12T14:12:12.647Z,2.00
2022-10-12T14:14:44.327Z,2.10
2022-10-12T14:17:15.928Z,2.45
2022-10-12T14:19:46.809Z,2.55
2022-10-12T14:22:21.646Z,2.13
2022-10-12T14:24:50.733Z,2.60
2022-10-12T14:27:26.098Z,2.60
2022-10-12T14:29:58.255Z,2.30
2022-10-12T14:32:42.454Z,2.80
2022-10-12T14:35:14.794Z,2.50
2022-10-12T14:37:43.089Z,2.40
2022-10-12T14:40:35.246Z,2.38
2022-10-12T14:43:09.502Z,2.50
2022-10-12T14:45:37.625Z,2.78
2022-10-12T14:48:10.931Z,2.28
2022-10-12T14:50:38.974Z,2.60
2022-10-12T14:53:12.327Z,2.40
2022-10-12T14:55:42.523Z,2.60
2022-10-12T14:58:16.328Z,2.60
2022-10-12T15:00:45.136Z,2.65
2022-10-12T15:03:13.215Z,2.90
2022-10-12T15:05:41.234Z,3.00
2022-10-12T15:08:09.405Z,2.65
2022-10-12T15:10:38.709Z,2.78
2022-10-12T15:13:06.743Z,2.83
2022-10-12T15:15:40.741Z,2.90
2022-10-12T15:18:09.131Z,2.58
2022-10-12T15:20:38.357Z,3.17
2022-10-12T15:23:06.735Z,2.40
2022-10-12T15:25:42.794Z,2.70
2022-10-12T15:28:10.838Z,2.75
2022-10-12T15:30:58.070Z,3.00
2022-10-12T15:33:28.338Z,2.95
2022-10-12T15:35:56.536Z,3.10
2022-10-12T15:38:24.505Z,3.08
2022-10-12T15:40:53.463Z,3.08
2022-10-12T15:43:21.577Z,2.72
2022-10-12T15:45:51.546Z,3.40
2022-10-12T15:48:19.593Z,3.08
2022-10-12T15:50:49.146Z,3.63
2022-10-12T15:53:18.014Z,3.45
2022-10-12T15:55:46.034Z,4.57
2022-10-12T15:58:14.073Z,3.33
2022-10-12T16:00:42.158Z,2.90
2022-10-12T16:03:16.427Z,2.50
2022-10-12T16:05:46.234Z,2.90
2022-10-12T16:08:15.448Z,3.40
2022-10-12T16:10:43.544Z,2.88
2022-10-12T16:13:13.842Z,3.08
2022-10-12T16:15:42.842Z,3.45
2022-10-12T16:18:15.472Z,3.75
2022-10-12T16:20:46.687Z,3.90
2022-10-12T16:23:21.432Z,3.55
2022-10-12T16:25:49.412Z,3.30
2022-10-12T16:28:18.754Z,3.50
2022-10-12T16:30:46.814Z,3.63
2022-10-12T16:33:16.413Z,3.08
2022-10-12T16:35:44.995Z,3.25
2022-10-12T16:38:14.713Z,3.70
2022-10-12T16:40:43.329Z,3.40
2022-10-12T16:43:11.993Z,3.58
2022-10-12T16:45:40.047Z,3.85
2022-10-12T16:48:08.192Z,3.65
2022-10-12T16:50:40.859Z,3.45
2022-10-12T16:53:09.616Z,3.67
2022-10-12T16:55:40.765Z,4.60
2022-10-12T16:58:08.766Z,4.20
2022-10-12T17:00:37.860Z,3.60
2022-10-12T17:03:06.080Z,3.47
2022-10-12T17:05:34.084Z,3.88
2022-10-12T17:08:03.459Z,4.10
2022-10-12T17:10:31.566Z,3.70
2022-10-12T17:12:59.585Z,4.13
2022-10-12T17:15:27.594Z,4.20
2022-10-12T17:17:56.334Z,4.50
2022-10-12T17:20:24.353Z,4.40
2022-10-12T17:22:52.374Z,4.22
2022-10-12T17:25:21.745Z,3.85
2022-10-12T17:27:49.744Z,4.05
2022-10-12T17:30:18.022Z,4.38
2022-10-12T17:32:46.007Z,4.50
2022-10-12T17:35:14.031Z,4.57
2022-10-12T17:37:42.042Z,4.60
2022-10-12T17:40:11.748Z,5.13
2022-10-12T17:42:41.157Z,5.50
2022-10-12T17:45:09.841Z,5.32
2022-10-12T17:47:39.250Z,5.10
2022-10-12T17:50:08.101Z,4.82
2022-10-12T17:52:41.700Z,4.90
2022-10-12T17:55:29.669Z,5.13
2022-10-12T17:58:01.031Z,5.95
2022-10-12T18:00:29.610Z,6.65
2022-10-12T18:02:58.310Z,6.10
2022-10-12T18:05:26.561Z,5.88
2022-10-12T18:07:54.577Z,6.32
2022-10-12T18:10:24.807Z,6.03
2022-10-12T18:12:55.758Z,6.05
2022-10-12T18:15:25.129Z,7.25
2022-10-12T18:17:54.592Z,9.65
2022-10-12T18:20:22.662Z,8.88
2022-10-12T18:22:50.646Z,10.15
2022-10-12T18:25:18.885Z,9.77
2022-10-12T18:27:50.178Z,11.30
2022-10-12T18:30:18.382Z,10.27
2022-10-12T18:32:47.769Z,10.90
2022-10-12T18:35:15.939Z,11.07
2022-10-12T18:37:44.789Z,10.95
2022-10-12T18:40:13.393Z,11.70
2022-10-12T18:42:41.401Z,10.60
2022-10-12T18:45:10.129Z,10.55
2022-10-12T18:47:38.531Z,10.70
2022-10-12T18:50:09.266Z,10.23
2022-10-12T18:52:37.305Z,10.13
2022-10-12T18:55:05.925Z,10.57
2022-10-12T18:57:37.721Z,9.38
2022-10-12T19:00:10.243Z,9.40
2022-10-12T19:02:38.265Z,9.30
2022-10-12T19:05:08.370Z,9.23
2022-10-12T19:07:36.797Z,9.65
2022-10-12T19:10:07.055Z,8.77
2022-10-12T19:12:35.352Z,8.57
2022-10-12T19:15:03.452Z,8.27
2022-10-12T19:17:32.131Z,8.70
2022-10-12T19:20:00.157Z,7.93
2022-10-12T19:22:29.629Z,8.73
2022-10-12T19:24:57.578Z,8.32
2022-10-12T19:27:25.589Z,8.48
2022-10-12T19:29:53.568Z,8.70
2022-10-12T19:32:21.634Z,8.75
2022-10-12T19:34:51.901Z,8.02
2022-10-12T19:37:19.924Z,8.70
2022-10-12T19:39:49.342Z,8.63
2022-10-12T19:42:17.661Z,8.88
2022-10-12T19:44:45.818Z,8.38
2022-10-12T19:47:13.878Z,8.95
2022-10-12T19:49:45.160Z,8.07
2022-10-12T19:52:13.518Z,8.90
2022-10-12T19:54:41.784Z,9.40
2022-10-12T19:57:11.208Z,8.63
2022-10-12T19:59:39.190Z,9.57
2022-10-12T20:02:09.255Z,8.73
2022-10-12T20:04:37.286Z,9.27
2022-10-12T20:07:05.293Z,8.23
2022-10-12T20:09:33.334Z,9.05
2022-10-12T20:12:01.332Z,8.95
2022-10-12T20:14:30.837Z,8.00
2022-10-12T20:16:58.827Z,8.30
2022-10-12T20:19:26.915Z,8.30
2022-10-12T20:21:54.897Z,7.57
2022-10-12T20:24:22.970Z,8.52
2022-10-12T20:26:51.059Z,7.93
2022-10-12T20:29:19.032Z,6.80
2022-10-12T20:31:48.402Z,7.28
2022-10-12T20:34:16.432Z,6.75
2022-10-12T20:36:44.429Z,6.70
2022-10-12T20:39:12.410Z,7.20
2022-10-12T20:41:41.064Z,7.43
2022-10-12T20:44:10.922Z,7.55
2022-10-12T20:46:38.969Z,7.03
2022-10-12T20:49:08.333Z,7.40
2022-10-12T20:51:39.994Z,6.60
2022-10-12T20:54:09.147Z,6.78
2022-10-12T20:56:41.165Z,7.30
2022-10-12T21:20:14.378Z,7.13
2022-10-12T21:22:45.837Z,6.65
2022-10-12T21:25:13.861Z,7.30
2022-10-12T21:27:41.958Z,7.70
2022-10-12T21:30:10.604Z,6.68
2022-10-12T21:32:38.623Z,7.03
2022-10-12T21:35:07.254Z,6.68
2022-10-12T21:37:36.606Z,7.13
2022-10-12T21:40:05.183Z,7.95
2022-10-12T21:42:33.164Z,7.18
2022-10-12T21:45:01.214Z,7.40
2022-10-12T21:47:29.213Z,8.07
2022-10-12T21:49:57.221Z,8.50
2022-10-12T21:52:25.262Z,7.60
2022-10-12T21:54:54.651Z,8.57
2022-10-12T21:57:22.687Z,8.65
2022-10-12T21:59:50.768Z,8.75
2022-10-12T22:02:19.013Z,9.00
2022-10-12T22:04:47.317Z,9.20
2022-10-12T22:07:15.354Z,8.63
2022-10-12T22:09:45.218Z,8.77
2022-10-12T22:12:15.068Z,8.52
2022-10-12T22:14:43.285Z,8.63
2022-10-12T22:17:12.356Z,9.25
2022-10-12T22:19:45.116Z,8.75
2022-10-12T22:22:13.110Z,9.23
2022-10-12T22:24:41.119Z,8.93
2022-10-12T22:27:09.177Z,9.23
2022-10-12T22:29:38.566Z,9.02
2022-10-12T22:32:06.820Z,9.43
2022-10-12T22:34:34.810Z,9.38
2022-10-12T22:37:02.842Z,8.70
2022-10-12T22:39:30.874Z,8.25
2022-10-12T22:41:58.860Z,9.40
2022-10-12T22:44:26.971Z,8.80
2022-10-12T22:46:56.690Z,9.18
2022-10-12T22:49:24.707Z,8.95
2022-10-12T22:51:52.702Z,7.95
2022-10-12T22:54:20.762Z,9.32
2022-10-12T22:56:51.234Z,8.32
2022-10-12T22:59:19.263Z,8.73
2022-10-12T23:01:47.281Z,7.85
2022-10-12T23:04:16.771Z,9.30
2022-10-12T23:06:44.781Z,8.10
2022-10-12T23:09:12.886Z,8.45
2022-10-12T23:11:40.896Z,8.20
2022-10-12T23:14:11.982Z,8.10
2022-10-12T23:16:40.022Z,8.43
2022-10-12T23:19:08.085Z,8.93
2022-10-12T23:21:37.471Z,8.73
2022-10-12T23:24:06.348Z,8.50
2022-10-12T23:26:34.669Z,8.60
2022-10-12T23:29:03.299Z,7.90
2022-10-12T23:31:32.082Z,8.88
2022-10-12T23:34:02.908Z,8.90
2022-10-12T23:36:31.670Z,8.70
2022-10-12T23:39:03.014Z,8.90
2022-10-12T23:41:31.069Z,9.07
2022-10-12T23:43:59.124Z,7.95
2022-10-12T23:46:27.276Z,8.75
2022-10-12T23:48:57.670Z,8.55
2022-10-12T23:51:25.926Z,8.77
2022-10-12T23:53:54.034Z,8.48
2022-10-12T23:56:23.398Z,8.10
2022-10-12T23:58:51.421Z,7.93
